createdAt,value
2023-01-20T00:02:18.746Z,-2.40
2023-01-20T00:04:50.974Z,-2.40
2023-01-20T00:07:21.120Z,-2.40
2023-01-20T00:09:54.347Z,-2.40
2023-01-20T00:12:24.498Z,-2.40
2023-01-20T00:14:54.570Z,-2.40
2023-01-20T00:17:24.816Z,-2.50
2023-01-20T00:19:56.518Z,-2.50
2023-01-20T00:22:26.695Z,-2.40
2023-01-20T00:24:56.901Z,-2.50
2023-01-20T00:27:27.498Z,-2.50
2023-01-20T00:29:57.658Z,-2.50
2023-01-20T00:32:27.854Z,-2.50
2023-01-20T00:35:00.129Z,-2.60
2023-01-20T00:37:32.742Z,-2.60
2023-01-20T00:40:03.101Z,-2.70
2023-01-20T00:42:33.927Z,-2.80
2023-01-20T00:45:04.211Z,-2.80
2023-01-20T00:47:34.507Z,-2.90
2023-01-20T00:50:08.707Z,-2.90
2023-01-20T00:52:38.819Z,-2.90
2023-01-20T00:55:10.047Z,-2.90
2023-01-20T00:57:40.475Z,-2.90
2023-01-20T01:00:12.818Z,-3.00
2023-01-20T01:02:43.001Z,-3.00
2023-01-20T01:05:15.212Z,-3.00
2023-01-20T01:07:45.642Z,-3.10
2023-01-20T01:10:18.461Z,-3.10
2023-01-20T01:12:48.596Z,-3.10
2023-01-20T01:15:19.340Z,-3.10
2023-01-20T01:17:49.519Z,-3.20
2023-01-20T01:20:21.765Z,-3.20
2023-01-20T01:22:52.753Z,-3.20
2023-01-20T01:25:23.635Z,-3.20
2023-01-20T01:27:53.967Z,-3.20
2023-01-20T01:30:24.333Z,-3.30
2023-01-20T01:32:55.654Z,-3.30
2023-01-20T01:35:27.620Z,-3.30
2023-01-20T01:37:57.917Z,-3.30
2023-01-20T01:40:28.160Z,-3.40
2023-01-20T01:42:58.312Z,-3.40
2023-01-20T01:45:31.041Z,-3.40
2023-01-20T01:48:07.312Z,-3.40
2023-01-20T01:50:46.408Z,-3.40
2023-01-20T01:53:17.723Z,-3.40
2023-01-20T01:55:52.423Z,-3.40
2023-01-20T01:58:26.980Z,-3.40
2023-01-20T02:00:57.547Z,-3.40
2023-01-20T02:03:30.093Z,-3.50
2023-01-20T02:06:03.761Z,-3.40
2023-01-20T02:08:34.341Z,-3.40
2023-01-20T02:11:04.599Z,-3.40
2023-01-20T02:13:35.464Z,-3.40
2023-01-20T02:16:15.956Z,-3.40
2023-01-20T02:19:05.075Z,-3.40
2023-01-20T02:22:03.035Z,-3.40
2023-01-20T02:25:23.893Z,-3.40
2023-01-20T02:28:32.341Z,-3.40
2023-01-20T02:31:35.290Z,-3.40
2023-01-20T02:34:13.285Z,-3.40
2023-01-20T02:36:49.803Z,-3.40
2023-01-20T02:39:27.505Z,-3.40
2023-01-20T02:42:03.946Z,-3.40
2023-01-20T02:44:41.064Z,-3.50
2023-01-20T02:47:15.463Z,-3.40
2023-01-20T02:49:56.075Z,-3.40
2023-01-20T02:52:30.270Z,-3.40
2023-01-20T02:55:10.990Z,-3.40
2023-01-20T02:57:45.713Z,-3.40
2023-01-20T03:00:21.623Z,-3.40
2023-01-20T03:02:55.937Z,-3.40
2023-01-20T03:05:31.678Z,-3.40
2023-01-20T03:08:03.601Z,-3.40
2023-01-20T03:10:38.226Z,-3.40
2023-01-20T03:13:16.033Z,-3.40
2023-01-20T03:15:56.193Z,-3.30
2023-01-20T03:18:27.343Z,-3.30
2023-01-20T03:20:59.956Z,-3.30
2023-01-20T03:23:33.619Z,-3.30
2023-01-20T03:26:07.913Z,-3.30
2023-01-20T03:28:39.779Z,-3.30
2023-01-20T03:31:17.505Z,-3.30
2023-01-20T03:33:50.925Z,-3.30
2023-01-20T03:36:25.935Z,-3.20
2023-01-20T03:38:57.108Z,-3.30
2023-01-20T03:41:37.975Z,-3.30
2023-01-20T03:44:14.862Z,-3.20
2023-01-20T03:46:48.428Z,-3.20
2023-01-20T03:49:24.926Z,-3.30
2023-01-20T03:52:04.569Z,-3.30
2023-01-20T03:54:41.350Z,-3.30
2023-01-20T03:57:14.653Z,-3.30
2023-01-20T03:59:46.334Z,-3.20
2023-01-20T04:02:16.515Z,-3.20
2023-01-20T04:04:50.368Z,-3.20
2023-01-20T04:07:25.343Z,-3.20
2023-01-20T04:10:00.133Z,-3.20
2023-01-20T04:12:30.245Z,-3.20
2023-01-20T04:15:00.491Z,-3.20
2023-01-20T04:17:31.002Z,-3.20
2023-01-20T04:20:11.082Z,-3.20
2023-01-20T04:22:51.160Z,-3.20
2023-01-20T04:25:27.486Z,-3.20
2023-01-20T04:27:57.554Z,-3.10
2023-01-20T04:30:27.905Z,-3.20
2023-01-20T04:32:57.968Z,-3.20
2023-01-20T04:35:28.542Z,-3.20
2023-01-20T04:38:00.185Z,-3.20
2023-01-20T04:40:30.807Z,-3.20
2023-01-20T04:43:00.936Z,-3.20
2023-01-20T04:45:31.148Z,-3.20
2023-01-20T04:48:13.749Z,-3.20
2023-01-20T04:50:44.377Z,-3.20
2023-01-20T04:53:19.773Z,-3.20
2023-01-20T04:55:50.496Z,-3.20
2023-01-20T04:58:20.560Z,-3.10
2023-01-20T05:00:50.688Z,-3.20
2023-01-20T05:03:20.814Z,-3.20
2023-01-20T05:05:55.679Z,-3.20
2023-01-20T05:08:27.563Z,-3.10
2023-01-20T05:10:57.712Z,-3.10
2023-01-20T05:13:27.946Z,-3.10
2023-01-20T05:16:01.900Z,-3.10
2023-01-20T05:18:32.893Z,-3.10
2023-01-20T05:21:03.492Z,-3.10
2023-01-20T05:23:35.198Z,-3.10
2023-01-20T05:26:05.280Z,-3.10
2023-01-20T05:28:35.501Z,-3.10
2023-01-20T05:31:05.636Z,-3.10
2023-01-20T05:33:35.967Z,-3.10
2023-01-20T05:36:08.336Z,-3.10
2023-01-20T05:38:40.221Z,-3.00
2023-01-20T05:41:11.832Z,-3.00
2023-01-20T05:43:42.076Z,-3.00
2023-01-20T05:46:12.242Z,-3.00
2023-01-20T05:48:42.292Z,-3.00
2023-01-20T05:51:12.462Z,-3.00
2023-01-20T05:53:44.168Z,-3.00
2023-01-20T05:56:16.583Z,-3.00
2023-01-20T05:58:47.123Z,-3.00
2023-01-20T06:01:17.623Z,-3.00
2023-01-20T06:03:47.741Z,-3.00
2023-01-20T06:06:19.033Z,-3.10
2023-01-20T06:08:51.107Z,-3.00
2023-01-20T06:11:21.433Z,-3.00
2023-01-20T06:13:51.760Z,-3.10
2023-01-20T06:16:22.519Z,-3.10
2023-01-20T06:18:52.622Z,-3.10
2023-01-20T06:21:22.722Z,-3.00
2023-01-20T06:23:55.559Z,-3.00
2023-01-20T06:26:25.673Z,-3.00
2023-01-20T06:29:00.140Z,-3.00
2023-01-20T06:31:30.659Z,-3.00
2023-01-20T06:34:00.730Z,-3.00
2023-01-20T06:36:30.847Z,-3.00
2023-01-20T06:39:02.602Z,-3.00
2023-01-20T06:41:32.724Z,-2.90
2023-01-20T06:44:02.801Z,-3.00
2023-01-20T06:46:33.115Z,-2.90
2023-01-20T06:49:03.163Z,-2.90
2023-01-20T06:51:34.149Z,-2.90
2023-01-20T06:54:05.922Z,-2.90
2023-01-20T06:56:36.329Z,-2.90
2023-01-20T06:59:22.456Z,-2.90
2023-01-20T07:01:52.725Z,-2.90
2023-01-20T07:04:22.923Z,-2.90
2023-01-20T07:06:53.132Z,-2.90
2023-01-20T07:09:24.859Z,-2.90
2023-01-20T07:11:54.978Z,-2.90
2023-01-20T07:14:25.468Z,-2.90
2023-01-20T07:16:55.772Z,-2.90
2023-01-20T07:19:25.861Z,-2.90
2023-01-20T07:21:55.976Z,-2.90
2023-01-20T07:24:27.809Z,-2.80
2023-01-20T07:26:58.158Z,-2.80
2023-01-20T07:29:29.628Z,-2.80
2023-01-20T07:31:59.801Z,-2.90
2023-01-20T07:34:30.282Z,-2.90
2023-01-20T07:37:02.033Z,-2.90
2023-01-20T07:39:33.979Z,-2.90
2023-01-20T07:42:04.224Z,-2.90
2023-01-20T07:44:35.547Z,-2.80
2023-01-20T07:47:05.726Z,-2.80
2023-01-20T07:49:35.784Z,-2.80
2023-01-20T07:52:06.046Z,-2.80
2023-01-20T07:54:38.042Z,-2.80
2023-01-20T07:57:09.522Z,-2.80
2023-01-20T07:59:39.600Z,-2.80
2023-01-20T08:02:11.201Z,-2.80
2023-01-20T08:04:41.396Z,-2.80
2023-01-20T08:07:11.643Z,-2.80
2023-01-20T08:09:44.748Z,-2.70
2023-01-20T08:12:14.850Z,-2.70
2023-01-20T08:14:44.969Z,-2.70
2023-01-20T08:17:15.114Z,-2.70
2023-01-20T08:19:45.255Z,-2.70
2023-01-20T08:22:15.399Z,-2.70
2023-01-20T08:24:47.263Z,-2.60
2023-01-20T08:27:17.613Z,-2.60
2023-01-20T08:29:48.104Z,-2.60
2023-01-20T08:32:18.318Z,-2.60
2023-01-20T08:34:48.560Z,-2.50
2023-01-20T08:37:18.853Z,-2.50
2023-01-20T08:39:50.519Z,-2.50
2023-01-20T08:42:20.683Z,-2.50
2023-01-20T08:44:54.705Z,-2.50
2023-01-20T08:47:24.855Z,-2.40
2023-01-20T08:49:55.764Z,-2.40
2023-01-20T08:52:25.854Z,-2.40
2023-01-20T08:54:59.421Z,-2.40
2023-01-20T08:57:29.740Z,-2.30
2023-01-20T08:59:59.912Z,-2.30
2023-01-20T09:02:30.419Z,-2.30
2023-01-20T09:05:00.525Z,-2.30
2023-01-20T09:07:30.716Z,-2.30
2023-01-20T09:10:02.614Z,-2.30
2023-01-20T09:12:32.773Z,-2.30
2023-01-20T09:15:11.888Z,-2.20
2023-01-20T09:17:42.047Z,-2.20
2023-01-20T09:20:13.559Z,-2.20
2023-01-20T09:22:43.660Z,-2.20
2023-01-20T09:25:15.548Z,-2.20
2023-01-20T09:27:45.922Z,-2.20
2023-01-20T09:30:16.545Z,-2.20
2023-01-20T09:32:46.654Z,-2.20
2023-01-20T09:35:17.614Z,-2.20
2023-01-20T09:38:04.850Z,-2.20
2023-01-20T09:41:03.387Z,-2.10
2023-01-20T09:43:58.994Z,-2.10
2023-01-20T09:47:12.282Z,-2.20
2023-01-20T09:50:08.377Z,-2.20
2023-01-20T09:52:56.730Z,-2.20
2023-01-20T09:55:31.972Z,-2.10
2023-01-20T09:58:13.045Z,-2.10
2023-01-20T10:00:46.897Z,-2.10
2023-01-20T10:03:23.070Z,-2.10
2023-01-20T10:05:55.695Z,-2.10
2023-01-20T10:08:31.298Z,-2.10
2023-01-20T10:11:09.107Z,-2.10
2023-01-20T10:13:52.256Z,-2.10
2023-01-20T10:16:30.007Z,-2.10
2023-01-20T10:19:04.218Z,-2.10
2023-01-20T10:21:40.119Z,-2.10
2023-01-20T10:24:16.304Z,-2.10
2023-01-20T10:26:52.129Z,-2.00
2023-01-20T10:29:29.845Z,-2.10
2023-01-20T10:32:03.057Z,-2.10
2023-01-20T10:34:41.309Z,-2.10
2023-01-20T10:37:13.178Z,-2.10
2023-01-20T10:39:49.267Z,-2.10
2023-01-20T10:42:20.562Z,-2.10
2023-01-20T10:44:55.583Z,-2.10
2023-01-20T10:47:29.769Z,-2.10
2023-01-20T10:50:31.371Z,-2.10
2023-01-20T10:53:36.360Z,-2.10
2023-01-20T10:56:21.551Z,-2.00
2023-01-20T10:58:51.830Z,-2.00
2023-01-20T11:01:23.673Z,-2.10
2023-01-20T11:03:53.873Z,-2.10
2023-01-20T11:06:27.230Z,-2.10
2023-01-20T11:08:58.112Z,-2.10
2023-01-20T11:11:30.154Z,-2.10
2023-01-20T11:14:00.442Z,-2.10
2023-01-20T11:16:32.351Z,-2.10
2023-01-20T11:19:03.923Z,-2.10
2023-01-20T11:21:37.310Z,-2.10
2023-01-20T11:24:27.273Z,-2.20
2023-01-20T11:27:06.854Z,-2.20
2023-01-20T11:29:43.774Z,-2.20
2023-01-20T11:32:34.046Z,-2.20
2023-01-20T11:35:05.335Z,-2.20
2023-01-20T11:37:40.144Z,-2.20
2023-01-20T11:40:22.424Z,-2.20
2023-01-20T11:42:53.835Z,-2.20
2023-01-20T11:45:33.203Z,-2.20
2023-01-20T11:48:08.231Z,-2.20
2023-01-20T11:50:43.433Z,-2.20
2023-01-20T11:53:21.572Z,-2.20
2023-01-20T11:55:55.019Z,-2.20
2023-01-20T11:58:27.026Z,-2.30
2023-01-20T12:01:04.330Z,-2.30
2023-01-20T12:04:06.296Z,-2.30
2023-01-20T12:06:46.145Z,-2.30
2023-01-20T12:09:19.380Z,-2.30
2023-01-20T12:11:57.232Z,-2.30
2023-01-20T12:14:32.134Z,-2.30
2023-01-20T12:17:15.404Z,-2.30
2023-01-20T12:20:05.636Z,-2.30
2023-01-20T12:22:47.367Z,-2.30
2023-01-20T12:25:23.312Z,-2.30
2023-01-20T12:27:56.593Z,-2.40
2023-01-20T12:30:43.566Z,-2.40
2023-01-20T12:33:23.453Z,-2.40
2023-01-20T12:36:27.066Z,-2.40
2023-01-20T12:39:12.719Z,-2.30
2023-01-20T12:42:07.015Z,-2.30
2023-01-20T12:44:42.066Z,-2.30
2023-01-20T12:47:25.697Z,-2.30
2023-01-20T12:50:11.806Z,-2.30
2023-01-20T12:53:02.565Z,-2.30
2023-01-20T12:55:49.400Z,-2.30
2023-01-20T12:58:29.569Z,-2.30
2023-01-20T13:01:24.581Z,-2.20
2023-01-20T13:04:39.770Z,-2.20
2023-01-20T13:07:19.556Z,-2.20
2023-01-20T13:10:04.040Z,-2.20
2023-01-20T13:12:44.535Z,-2.20
2023-01-20T13:15:23.344Z,-2.10
2023-01-20T13:18:09.163Z,-2.10
2023-01-20T13:20:42.764Z,-2.10
2023-01-20T13:23:16.737Z,-2.00
2023-01-20T13:25:48.919Z,-2.00
2023-01-20T13:28:23.661Z,-2.00
2023-01-20T13:30:55.311Z,-2.00
2023-01-20T13:33:39.196Z,-2.00
2023-01-20T13:36:20.879Z,-2.00
2023-01-20T13:38:52.593Z,-1.90
2023-01-20T13:41:50.991Z,-1.90
2023-01-20T13:44:40.823Z,-1.90
2023-01-20T13:47:16.296Z,-1.90
2023-01-20T13:49:53.970Z,-1.90
2023-01-20T13:53:07.594Z,-1.90
2023-01-20T13:55:53.962Z,-1.90
2023-01-20T13:58:26.285Z,-1.90
2023-01-20T14:00:59.311Z,-1.90
2023-01-20T14:03:31.845Z,-1.90
2023-01-20T14:06:04.147Z,-1.90
2023-01-20T14:08:40.962Z,-1.80
2023-01-20T14:11:14.501Z,-1.80
2023-01-20T14:13:45.569Z,-1.70
2023-01-20T14:16:25.064Z,-1.70
2023-01-20T14:18:55.977Z,-1.60
2023-01-20T14:21:28.287Z,-1.50
2023-01-20T14:23:58.625Z,-1.50
2023-01-20T14:26:30.400Z,-1.50
2023-01-20T14:29:01.891Z,-1.40
2023-01-20T14:31:41.334Z,-1.30
2023-01-20T14:34:30.118Z,-1.20
2023-01-20T14:37:02.230Z,-1.10
2023-01-20T14:39:34.004Z,-1.10
2023-01-20T14:42:04.677Z,-1.00
2023-01-20T14:44:35.517Z,-1.00
2023-01-20T14:47:07.418Z,-0.90
2023-01-20T14:49:40.122Z,-0.80
2023-01-20T14:52:11.257Z,-0.80
2023-01-20T14:54:45.041Z,-0.70
2023-01-20T14:57:31.508Z,-0.70
2023-01-20T15:00:22.741Z,-0.60
2023-01-20T15:03:10.226Z,-0.50
2023-01-20T15:05:43.049Z,-0.30
2023-01-20T15:08:25.503Z,-0.20
2023-01-20T15:11:25.676Z,-0.20
2023-01-20T15:14:10.471Z,-0.10
2023-01-20T15:16:49.934Z,0.10
2023-01-20T15:19:33.234Z,0.20
2023-01-20T15:22:24.480Z,0.30
2023-01-20T15:24:55.682Z,0.30
2023-01-20T15:27:32.091Z,0.40
2023-01-20T15:30:18.212Z,0.50
2023-01-20T15:32:49.587Z,0.60
2023-01-20T15:35:26.578Z,0.80
2023-01-20T15:37:57.282Z,0.80
2023-01-20T15:40:29.270Z,0.90
2023-01-20T15:42:59.365Z,1.00
2023-01-20T15:45:29.549Z,1.10
2023-01-20T15:47:59.822Z,1.20
2023-01-20T15:50:33.663Z,1.30
2023-01-20T15:53:04.099Z,1.30
2023-01-20T15:55:34.510Z,1.30
2023-01-20T15:58:05.010Z,1.50
2023-01-20T16:00:35.167Z,1.50
2023-01-20T16:03:05.269Z,1.50
2023-01-20T16:05:37.015Z,1.70
2023-01-20T16:08:13.137Z,1.60
2023-01-20T16:10:43.291Z,1.50
2023-01-20T16:13:13.739Z,1.40
2023-01-20T16:15:45.959Z,1.40
2023-01-20T16:18:17.734Z,1.40
2023-01-20T16:20:50.868Z,1.20
2023-01-20T16:23:21.108Z,1.20
2023-01-20T16:25:51.548Z,1.20
2023-01-20T16:28:24.787Z,1.20
2023-01-20T16:30:58.224Z,1.20
2023-01-20T16:33:29.542Z,1.30
2023-01-20T16:36:01.314Z,1.20
2023-01-20T16:38:31.404Z,1.20
2023-01-20T16:41:06.714Z,1.10
2023-01-20T16:43:36.841Z,0.90
2023-01-20T16:46:07.177Z,0.90
2023-01-20T16:48:37.465Z,0.60
2023-01-20T16:51:09.421Z,0.50
2023-01-20T16:53:39.550Z,0.60
2023-01-20T16:56:16.230Z,0.60
2023-01-20T16:58:49.085Z,0.50
2023-01-20T17:01:25.130Z,0.50
2023-01-20T17:03:56.739Z,0.50
2023-01-20T17:06:29.836Z,0.60
2023-01-20T17:09:01.348Z,0.80
2023-01-20T17:11:33.121Z,0.80
2023-01-20T17:14:05.184Z,0.90
2023-01-20T17:16:35.926Z,0.80
2023-01-20T17:19:06.935Z,1.00
2023-01-20T17:21:41.159Z,1.10
2023-01-20T17:24:13.672Z,1.20
2023-01-20T17:26:43.801Z,1.20
2023-01-20T17:29:14.081Z,1.30
2023-01-20T17:31:54.085Z,1.40
2023-01-20T17:34:24.254Z,1.50
2023-01-20T17:36:56.614Z,1.50
2023-01-20T17:39:26.720Z,1.50
2023-01-20T17:41:56.867Z,1.50
2023-01-20T17:44:27.046Z,1.40
2023-01-20T17:46:57.200Z,1.30
2023-01-20T17:49:27.370Z,1.30
2023-01-20T17:51:59.066Z,1.20
2023-01-20T17:54:29.766Z,1.10
2023-01-20T17:56:59.915Z,1.20
2023-01-20T17:59:30.130Z,1.10
2023-01-20T18:02:00.283Z,1.00
2023-01-20T18:04:30.790Z,1.10
2023-01-20T18:07:02.613Z,1.10
2023-01-20T18:09:32.710Z,1.10
2023-01-20T18:12:03.011Z,1.10
2023-01-20T18:14:33.101Z,1.20
2023-01-20T18:17:03.451Z,1.30
2023-01-20T18:19:33.584Z,1.20
2023-01-20T18:22:07.788Z,1.20
2023-01-20T18:24:37.892Z,1.30
2023-01-20T18:27:07.994Z,1.20
2023-01-20T18:29:38.136Z,1.30
2023-01-20T18:32:08.431Z,1.40
2023-01-20T18:34:38.869Z,1.30
2023-01-20T18:37:10.604Z,1.40
2023-01-20T18:39:40.712Z,1.40
2023-01-20T18:42:10.823Z,1.20
2023-01-20T18:44:40.905Z,1.30
2023-01-20T18:47:11.021Z,1.50
2023-01-20T18:49:41.127Z,1.40
2023-01-20T18:52:12.893Z,1.60
2023-01-20T18:54:43.643Z,1.60
2023-01-20T18:57:13.785Z,1.40
2023-01-20T18:59:44.056Z,1.40
2023-01-20T19:02:14.687Z,1.50
2023-01-20T19:04:45.022Z,1.50
2023-01-20T19:07:16.718Z,1.50
2023-01-20T19:09:48.148Z,1.60
2023-01-20T19:12:18.277Z,1.80
2023-01-20T19:14:48.350Z,1.60
2023-01-20T19:17:18.659Z,1.60
2023-01-20T19:19:50.718Z,1.60
2023-01-20T19:22:22.423Z,1.70
2023-01-20T19:24:52.578Z,1.70
2023-01-20T19:27:22.703Z,1.50
2023-01-20T19:29:54.490Z,1.50
2023-01-20T19:32:24.564Z,1.40
2023-01-20T19:34:54.694Z,1.40
2023-01-20T19:37:26.516Z,1.40
2023-01-20T19:39:57.367Z,1.40
2023-01-20T19:42:27.522Z,1.30
2023-01-20T19:44:57.722Z,1.20
2023-01-20T19:47:32.251Z,1.20
2023-01-20T19:50:02.287Z,1.10
2023-01-20T19:52:34.348Z,1.10
2023-01-20T19:55:05.188Z,1.10
2023-01-20T19:57:35.360Z,1.20
2023-01-20T20:00:07.173Z,1.10
2023-01-20T20:02:37.311Z,1.10
2023-01-20T20:05:08.312Z,0.90
2023-01-20T20:07:40.234Z,0.80
2023-01-20T20:10:10.618Z,0.80
2023-01-20T20:12:40.871Z,0.60
2023-01-20T20:15:11.714Z,0.60
2023-01-20T20:17:42.039Z,0.60
2023-01-20T20:20:13.300Z,0.60
2023-01-20T20:22:44.977Z,0.50
2023-01-20T20:25:15.087Z,0.50
2023-01-20T20:27:45.223Z,0.50
2023-01-20T20:30:18.358Z,0.50
2023-01-20T20:32:48.660Z,0.50
2023-01-20T20:35:19.087Z,0.50
2023-01-20T20:37:50.822Z,0.50
2023-01-20T20:40:25.836Z,0.40
2023-01-20T20:42:58.075Z,0.40
2023-01-20T20:45:28.205Z,0.30
2023-01-20T20:47:59.836Z,0.30
2023-01-20T20:50:30.001Z,0.20
2023-01-20T20:53:01.804Z,0.10
2023-01-20T20:55:32.187Z,0.00
2023-01-20T20:58:02.417Z,0.00
2023-01-20T21:00:32.560Z,-0.10
2023-01-20T21:03:03.085Z,-0.10
2023-01-20T21:05:34.587Z,-0.10
2023-01-20T21:08:06.740Z,-0.20
2023-01-20T21:10:36.776Z,-0.20
2023-01-20T21:13:08.879Z,-0.20
2023-01-20T21:15:39.857Z,-0.30
2023-01-20T21:18:10.371Z,-0.30
2023-01-20T21:20:40.475Z,-0.40
2023-01-20T21:23:12.241Z,-0.40
2023-01-20T21:25:42.552Z,-0.50
2023-01-20T21:28:12.761Z,-0.50
2023-01-20T21:30:43.037Z,-0.60
2023-01-20T21:33:18.158Z,-0.60
2023-01-20T21:35:48.381Z,-0.60
2023-01-20T21:38:20.158Z,-0.60
2023-01-20T21:41:01.978Z,-0.70
2023-01-20T21:43:51.061Z,-0.70
2023-01-20T21:46:21.799Z,-0.80
2023-01-20T21:49:08.581Z,-0.80
2023-01-20T21:51:55.370Z,-0.80
2023-01-20T21:54:31.022Z,-0.90
2023-01-20T21:57:01.615Z,-0.90
2023-01-20T21:59:31.836Z,-0.90
2023-01-20T22:02:01.908Z,-0.90
2023-01-20T22:04:32.086Z,-0.90
2023-01-20T22:07:02.266Z,-0.90
2023-01-20T22:09:34.234Z,-0.90
2023-01-20T22:12:04.363Z,-0.90
2023-01-20T22:14:34.477Z,-0.90
2023-01-20T22:17:04.595Z,-1.00
2023-01-20T22:19:35.008Z,-1.00
2023-01-20T22:22:05.521Z,-1.00
2023-01-20T22:24:37.607Z,-1.00
2023-01-20T22:27:07.825Z,-1.10
2023-01-20T22:29:38.004Z,-1.10
2023-01-20T22:32:08.230Z,-1.20
2023-01-20T22:34:38.372Z,-1.20
2023-01-20T22:37:08.504Z,-1.20
2023-01-20T22:39:40.188Z,-1.30
2023-01-20T22:42:10.798Z,-1.30
2023-01-20T22:44:40.885Z,-1.30
2023-01-20T22:47:11.941Z,-1.30
2023-01-20T22:49:42.058Z,-1.30
2023-01-20T22:52:12.354Z,-1.30
2023-01-20T22:54:44.665Z,-1.40
2023-01-20T22:57:14.798Z,-1.40
2023-01-20T22:59:45.056Z,-1.40
2023-01-20T23:02:15.175Z,-1.40
2023-01-20T23:04:45.284Z,-1.40
2023-01-20T23:07:15.432Z,-1.40
2023-01-20T23:09:47.490Z,-1.40
2023-01-20T23:12:17.575Z,-1.40
2023-01-20T23:15:03.506Z,-1.40
2023-01-20T23:17:34.434Z,-1.50
2023-01-20T23:20:04.673Z,-1.40
2023-01-20T23:22:34.744Z,-1.40
2023-01-20T23:25:09.248Z,-1.40
2023-01-20T23:27:39.338Z,-1.40
2023-01-20T23:30:10.979Z,-1.50
2023-01-20T23:32:41.114Z,-1.40
2023-01-20T23:35:11.907Z,-1.40
2023-01-20T23:37:41.976Z,-1.30
2023-01-20T23:40:15.076Z,-1.40
2023-01-20T23:42:45.276Z,-1.40
2023-01-20T23:45:15.929Z,-1.40
2023-01-20T23:47:46.295Z,-1.40
2023-01-20T23:50:16.636Z,-1.30
2023-01-20T23:52:46.991Z,-1.40
2023-01-20T23:55:19.509Z,-1.40
2023-01-20T23:57:50.297Z,-1.40
